createdAt,value
2018-12-26T00:00:50.252Z,3.20
2018-12-26T00:01:50.242Z,3.10
2018-12-26T00:02:50.233Z,3.10
2018-12-26T00:03:50.232Z,3.20
2018-12-26T00:04:50.209Z,2.90
2018-12-26T00:05:50.235Z,3.10
2018-12-26T00:06:50.193Z,3.20
2018-12-26T00:07:50.179Z,3.10
2018-12-26T00:08:50.174Z,3.20
2018-12-26T00:09:50.156Z,3.20
2018-12-26T00:10:50.217Z,3.40
2018-12-26T00:11:50.134Z,3.10
2018-12-26T00:12:50.123Z,3.20
2018-12-26T00:13:50.121Z,3.30
2018-12-26T00:14:50.104Z,3.10
2018-12-26T00:15:50.091Z,3.20
2018-12-26T00:16:50.081Z,3.20
2018-12-26T00:17:50.071Z,3.20
2018-12-26T00:18:50.068Z,3.30
2018-12-26T00:19:50.084Z,3.30
2018-12-26T00:20:50.041Z,3.50
2018-12-26T00:21:50.027Z,3.20
2018-12-26T00:22:50.017Z,3.10
2018-12-26T00:23:50.043Z,3.60
2018-12-26T00:24:49.996Z,3.10
2018-12-26T00:25:49.984Z,3.00
2018-12-26T00:26:49.978Z,2.90
2018-12-26T00:27:49.965Z,3.10
2018-12-26T00:28:49.979Z,3.20
2018-12-26T00:29:49.945Z,3.20
2018-12-26T00:30:49.929Z,3.30
2018-12-26T00:31:49.921Z,3.40
2018-12-26T00:32:49.925Z,3.10
2018-12-26T00:33:49.897Z,3.40
2018-12-26T00:34:49.896Z,3.20
2018-12-26T00:35:49.875Z,3.00
2018-12-26T00:36:49.869Z,3.30
2018-12-26T00:37:49.856Z,3.00
2018-12-26T00:38:49.841Z,3.30
2018-12-26T00:39:49.859Z,3.40
2018-12-26T00:40:49.821Z,3.40
2018-12-26T00:41:49.809Z,3.30
2018-12-26T00:42:49.800Z,3.30
2018-12-26T00:43:49.787Z,3.50
2018-12-26T00:44:49.792Z,3.30
2018-12-26T00:45:49.765Z,3.40
2018-12-26T00:46:49.757Z,3.50
2018-12-26T00:47:49.825Z,3.40
2018-12-26T00:48:49.735Z,3.60
2018-12-26T00:49:49.735Z,3.50
2018-12-26T00:50:49.712Z,3.10
2018-12-26T00:51:49.700Z,3.70
2018-12-26T00:52:49.690Z,3.40
2018-12-26T00:53:49.679Z,3.70
2018-12-26T00:54:49.677Z,3.60
2018-12-26T00:55:49.660Z,3.50
2018-12-26T00:56:49.646Z,3.70
2018-12-26T00:57:49.635Z,3.50
2018-12-26T00:58:49.623Z,3.50
2018-12-26T00:59:49.649Z,3.30
2018-12-26T01:00:49.607Z,3.60
2018-12-26T01:01:49.591Z,3.60
2018-12-26T01:02:49.581Z,3.70
2018-12-26T01:03:49.715Z,3.60
2018-12-26T01:04:49.559Z,3.90
2018-12-26T01:05:49.557Z,3.60
2018-12-26T01:06:49.537Z,3.90
2018-12-26T01:07:49.525Z,3.80
2018-12-26T01:08:49.515Z,4.10
2018-12-26T01:09:49.504Z,3.90
2018-12-26T01:10:49.502Z,3.70
2018-12-26T01:11:49.485Z,3.70
2018-12-26T01:12:49.471Z,3.60
2018-12-26T01:13:49.462Z,4.10
2018-12-26T01:14:49.450Z,4.20
2018-12-26T01:15:49.447Z,3.80
2018-12-26T01:16:49.429Z,4.30
2018-12-26T01:17:49.418Z,3.90
2018-12-26T01:18:49.409Z,4.00
2018-12-26T01:19:49.396Z,4.10
2018-12-26T01:20:49.393Z,4.30
2018-12-26T01:21:49.414Z,4.40
2018-12-26T01:22:49.363Z,4.20
2018-12-26T01:23:49.354Z,3.90
2018-12-26T01:24:49.354Z,4.10
2018-12-26T01:25:49.338Z,4.00
2018-12-26T01:26:49.320Z,4.20
2018-12-26T01:27:49.309Z,4.50
2018-12-26T01:28:49.302Z,4.10
2018-12-26T01:29:49.287Z,4.70
2018-12-26T01:30:49.286Z,4.30
2018-12-26T01:31:49.266Z,4.40
2018-12-26T01:32:49.254Z,4.70
2018-12-26T01:33:49.245Z,4.50
2018-12-26T01:34:49.236Z,4.60
2018-12-26T01:35:49.234Z,4.60
2018-12-26T01:36:49.211Z,4.70
2018-12-26T01:37:49.200Z,4.90
2018-12-26T01:38:49.189Z,4.50
2018-12-26T01:39:49.179Z,4.90
2018-12-26T01:40:49.199Z,4.60
2018-12-26T01:41:49.162Z,4.70
2018-12-26T01:42:49.147Z,4.70
2018-12-26T01:43:49.137Z,4.20
2018-12-26T01:44:49.126Z,4.60
2018-12-26T01:45:49.115Z,4.70
2018-12-26T01:46:49.111Z,4.50
2018-12-26T01:47:49.097Z,4.60
2018-12-26T01:48:49.081Z,4.60
2018-12-26T01:49:49.071Z,4.60
2018-12-26T01:50:49.063Z,4.60
2018-12-26T01:51:49.060Z,4.40
2018-12-26T01:52:49.042Z,5.00
2018-12-26T01:53:49.026Z,4.70
2018-12-26T01:54:49.016Z,4.50
2018-12-26T01:55:49.005Z,4.70
2018-12-26T01:56:49.002Z,4.70
2018-12-26T01:57:48.983Z,4.80
2018-12-26T01:58:48.972Z,4.90
2018-12-26T01:59:48.961Z,4.60
2018-12-26T02:00:48.956Z,5.20
2018-12-26T02:01:48.949Z,4.90
2018-12-26T02:02:48.928Z,4.60
2018-12-26T02:03:48.921Z,4.50
2018-12-26T02:04:48.908Z,4.40
2018-12-26T02:05:48.906Z,4.30
2018-12-26T02:06:48.896Z,4.60
2018-12-26T02:07:48.875Z,4.70
2018-12-26T02:08:48.864Z,4.90
2018-12-26T02:09:48.856Z,4.40
2018-12-26T02:10:48.844Z,4.60
2018-12-26T02:11:48.852Z,4.60
2018-12-26T02:12:48.829Z,4.50
2018-12-26T02:13:48.811Z,4.70
2018-12-26T02:14:48.801Z,4.40
2018-12-26T02:15:48.789Z,4.60
2018-12-26T02:16:48.786Z,4.70
2018-12-26T02:17:48.768Z,4.70
2018-12-26T02:18:48.757Z,4.30
2018-12-26T02:19:48.747Z,4.50
2018-12-26T02:20:48.736Z,5.00
2018-12-26T02:21:48.736Z,4.50
2018-12-26T02:22:48.714Z,4.50
2018-12-26T02:23:48.704Z,4.70
2018-12-26T02:24:48.696Z,4.60
2018-12-26T02:25:48.682Z,4.80
2018-12-26T02:26:48.720Z,4.50
2018-12-26T02:27:48.661Z,4.50
2018-12-26T02:28:48.650Z,4.60
2018-12-26T02:29:48.641Z,4.90
2018-12-26T02:30:48.631Z,4.60
2018-12-26T02:31:48.634Z,4.60
2018-12-26T02:32:48.617Z,4.80
2018-12-26T02:33:48.598Z,4.60
2018-12-26T02:34:48.587Z,4.40
2018-12-26T02:35:48.576Z,4.40
2018-12-26T02:36:48.564Z,4.50
2018-12-26T02:37:48.566Z,4.60
2018-12-26T02:38:48.543Z,5.00
2018-12-26T02:39:48.533Z,4.40
2018-12-26T02:40:48.522Z,4.70
2018-12-26T02:41:48.511Z,4.90
2018-12-26T02:42:48.508Z,4.50
2018-12-26T02:43:48.490Z,4.80
2018-12-26T02:44:48.479Z,4.40
2018-12-26T02:45:48.487Z,4.90
2018-12-26T02:46:48.459Z,4.60
2018-12-26T02:47:48.454Z,4.60
2018-12-26T02:48:48.435Z,4.50
2018-12-26T02:49:48.425Z,4.50
2018-12-26T02:50:48.423Z,4.30
2018-12-26T02:51:48.505Z,4.70
2018-12-26T02:52:48.401Z,4.60
2018-12-26T02:53:48.382Z,4.60
2018-12-26T02:54:48.373Z,4.70
2018-12-26T02:55:48.364Z,4.50
2018-12-26T02:56:49.146Z,4.90
2018-12-26T02:57:48.352Z,4.80
2018-12-26T02:58:48.328Z,4.80
2018-12-26T02:59:48.318Z,4.70
2018-12-26T03:00:48.307Z,4.60
2018-12-26T03:01:48.302Z,4.90
2018-12-26T03:02:48.321Z,4.40
2018-12-26T03:03:48.280Z,4.70
2018-12-26T03:04:48.264Z,4.70
2018-12-26T03:05:48.253Z,4.50
2018-12-26T03:06:48.243Z,4.70
2018-12-26T03:07:48.233Z,4.60
2018-12-26T03:08:48.232Z,4.80
2018-12-26T03:09:48.247Z,4.90
2018-12-26T03:10:48.199Z,4.70
2018-12-26T03:11:48.189Z,5.00
2018-12-26T03:12:48.177Z,5.40
2018-12-26T03:13:48.180Z,4.80
2018-12-26T03:14:48.157Z,4.90
2018-12-26T03:15:48.150Z,4.90
2018-12-26T03:16:48.135Z,5.00
2018-12-26T03:17:48.125Z,5.30
2018-12-26T03:18:48.123Z,5.00
2018-12-26T03:19:48.107Z,5.20
2018-12-26T03:20:48.099Z,5.00
2018-12-26T03:21:48.082Z,5.00
2018-12-26T03:22:48.070Z,4.80
2018-12-26T03:23:48.066Z,5.00
2018-12-26T03:24:48.051Z,5.40
2018-12-26T03:25:48.044Z,5.10
2018-12-26T03:26:56.007Z,5.60
2018-12-26T03:27:49.050Z,5.60
2018-12-26T03:28:48.014Z,5.40
2018-12-26T03:29:47.997Z,5.80
2018-12-26T03:30:47.997Z,5.40
2018-12-26T03:31:47.975Z,6.00
2018-12-26T03:32:47.963Z,5.70
2018-12-26T03:33:47.979Z,6.00
2018-12-26T03:34:47.942Z,6.30
2018-12-26T03:35:47.931Z,5.80
2018-12-26T03:36:47.919Z,6.10
2018-12-26T03:37:47.907Z,6.40
2018-12-26T03:38:47.897Z,6.30
2018-12-26T03:39:47.894Z,6.70
2018-12-26T03:40:47.875Z,6.20
2018-12-26T03:41:47.865Z,6.80
2018-12-26T03:42:47.853Z,7.40
2018-12-26T03:43:47.845Z,6.80
2018-12-26T03:44:47.840Z,7.20
2018-12-26T03:45:47.824Z,7.00
2018-12-26T03:46:47.813Z,7.90
2018-12-26T03:47:47.801Z,7.60
2018-12-26T03:48:47.788Z,8.20
2018-12-26T03:49:47.786Z,7.80
2018-12-26T03:50:47.767Z,7.70
2018-12-26T03:51:47.761Z,7.70
2018-12-26T03:52:47.747Z,8.10
2018-12-26T03:53:47.737Z,8.40
2018-12-26T03:54:47.732Z,8.20
2018-12-26T03:55:47.713Z,8.10
2018-12-26T03:56:47.727Z,7.90
2018-12-26T03:57:47.714Z,9.00
2018-12-26T03:58:47.688Z,8.60
2018-12-26T03:59:47.683Z,8.90
2018-12-26T04:00:47.661Z,9.10
2018-12-26T04:01:47.649Z,8.60
2018-12-26T04:02:47.638Z,9.50
2018-12-26T04:03:47.638Z,9.10
2018-12-26T04:04:47.641Z,8.90
2018-12-26T04:05:47.605Z,9.30
2018-12-26T04:06:47.595Z,9.70
2018-12-26T04:07:47.585Z,10.00
2018-12-26T04:08:47.572Z,9.90
2018-12-26T04:09:47.575Z,10.80
2018-12-26T04:10:47.552Z,10.20
2018-12-26T04:11:47.542Z,10.80
2018-12-26T04:12:47.532Z,10.50
2018-12-26T04:13:47.586Z,11.20
2018-12-26T04:14:47.508Z,11.70
2018-12-26T04:15:47.511Z,11.90
2018-12-26T04:16:47.488Z,11.70
2018-12-26T04:17:47.478Z,12.20
2018-12-26T04:18:47.472Z,12.20
2018-12-26T04:19:47.454Z,12.20
2018-12-26T04:20:47.451Z,12.40
2018-12-26T04:21:47.433Z,13.00
2018-12-26T04:22:47.422Z,13.60
2018-12-26T04:23:47.415Z,13.80
2018-12-26T04:24:47.409Z,14.20
2018-12-26T04:25:47.404Z,14.40
2018-12-26T04:26:47.378Z,14.50
2018-12-26T04:27:47.377Z,15.30
2018-12-26T04:28:47.357Z,15.00
2018-12-26T04:29:47.349Z,15.00
2018-12-26T04:30:47.347Z,15.30
2018-12-26T04:31:47.323Z,15.80
2018-12-26T04:32:47.314Z,16.00
2018-12-26T04:33:47.333Z,15.80
2018-12-26T04:34:47.291Z,16.00
2018-12-26T04:35:47.291Z,16.30
2018-12-26T04:36:47.271Z,16.80
2018-12-26T04:37:47.258Z,17.40
2018-12-26T04:38:47.248Z,17.20
2018-12-26T04:39:47.237Z,17.70
2018-12-26T04:40:47.238Z,17.30
2018-12-26T04:41:47.216Z,17.70
2018-12-26T04:42:47.204Z,18.50
2018-12-26T04:43:47.193Z,18.30
2018-12-26T04:44:47.182Z,18.40
2018-12-26T04:45:47.182Z,19.00
2018-12-26T04:46:47.163Z,18.20
2018-12-26T04:47:47.155Z,18.30
2018-12-26T04:48:47.139Z,19.00
2018-12-26T04:49:47.128Z,19.10
2018-12-26T04:50:47.126Z,19.10
2018-12-26T04:51:47.109Z,19.70
2018-12-26T04:52:47.099Z,18.40
2018-12-26T04:53:47.084Z,19.30
2018-12-26T04:54:47.076Z,19.30
2018-12-26T04:55:47.074Z,19.40
2018-12-26T04:56:47.051Z,19.80
2018-12-26T04:57:47.041Z,19.40
2018-12-26T04:58:47.030Z,19.80
2018-12-26T04:59:47.021Z,19.50
2018-12-26T05:00:47.022Z,19.90
2018-12-26T05:01:46.998Z,19.90
2018-12-26T05:02:46.989Z,20.30
2018-12-26T05:03:46.978Z,19.80
2018-12-26T05:04:46.965Z,19.60
2018-12-26T05:05:46.963Z,19.80
2018-12-26T05:06:46.946Z,19.90
2018-12-26T05:07:46.934Z,19.80
2018-12-26T05:08:46.923Z,19.80
2018-12-26T05:09:46.912Z,19.40
2018-12-26T05:10:46.909Z,19.70
2018-12-26T05:11:46.889Z,20.00
2018-12-26T05:12:46.879Z,19.20
2018-12-26T05:13:46.898Z,19.70
2018-12-26T05:14:46.857Z,20.10
2018-12-26T05:15:47.049Z,19.70
2018-12-26T05:16:46.835Z,19.50
2018-12-26T05:17:46.825Z,20.00
2018-12-26T05:18:46.814Z,19.60
2018-12-26T05:19:46.804Z,19.10
2018-12-26T05:20:46.794Z,19.70
2018-12-26T05:21:46.790Z,19.90
2018-12-26T05:22:46.772Z,19.30
2018-12-26T05:23:46.758Z,20.40
2018-12-26T05:24:46.804Z,19.40
2018-12-26T05:25:46.745Z,19.90
2018-12-26T05:26:46.736Z,19.50
2018-12-26T05:27:46.717Z,18.90
2018-12-26T05:28:46.719Z,19.20
2018-12-26T05:29:46.694Z,19.90
2018-12-26T05:30:46.742Z,19.90
2018-12-26T05:31:46.685Z,19.00
2018-12-26T05:32:46.661Z,19.50
2018-12-26T05:33:46.653Z,20.10
2018-12-26T05:34:46.641Z,20.00
2018-12-26T05:35:46.630Z,19.80
2018-12-26T05:36:46.626Z,19.40
2018-12-26T05:37:46.608Z,19.60
2018-12-26T05:38:46.597Z,20.10
2018-12-26T05:39:46.589Z,20.00
2018-12-26T05:40:46.575Z,20.00
2018-12-26T05:41:46.572Z,20.30
2018-12-26T05:42:46.554Z,19.70
2018-12-26T05:43:46.543Z,20.00
2018-12-26T05:44:46.535Z,20.20
2018-12-26T05:45:46.525Z,20.50
2018-12-26T05:46:46.520Z,19.50
2018-12-26T05:47:46.500Z,20.40
2018-12-26T05:48:46.489Z,20.40
2018-12-26T05:49:46.483Z,20.20
2018-12-26T05:50:46.470Z,20.80
2018-12-26T05:51:46.467Z,20.30
2018-12-26T05:52:46.447Z,20.50
2018-12-26T05:53:46.439Z,20.40
2018-12-26T05:54:46.425Z,21.60
2018-12-26T05:55:46.415Z,20.60
2018-12-26T05:56:46.441Z,20.70
2018-12-26T05:57:46.392Z,20.60
2018-12-26T05:58:46.381Z,21.30
2018-12-26T05:59:46.371Z,20.70
2018-12-26T06:00:46.363Z,20.60
2018-12-26T06:01:46.350Z,20.40
2018-12-26T06:02:46.358Z,20.40
2018-12-26T06:03:46.331Z,20.30
2018-12-26T06:04:46.318Z,20.80
2018-12-26T06:05:46.317Z,20.90
2018-12-26T06:06:46.300Z,20.40
2018-12-26T06:07:46.301Z,21.30
2018-12-26T06:08:46.278Z,20.90
2018-12-26T06:09:46.265Z,21.20
2018-12-26T06:10:46.255Z,21.90
2018-12-26T06:11:46.243Z,21.50
2018-12-26T06:12:46.242Z,21.50
2018-12-26T06:13:46.222Z,21.10
2018-12-26T06:14:46.217Z,20.70
2018-12-26T06:15:46.200Z,21.10
2018-12-26T06:16:46.190Z,21.50
2018-12-26T06:17:46.188Z,21.50
2018-12-26T06:18:46.169Z,21.40
2018-12-26T06:19:46.161Z,21.30
2018-12-26T06:20:46.148Z,21.40
2018-12-26T06:21:46.221Z,22.20
2018-12-26T06:22:46.135Z,22.00
2018-12-26T06:23:46.118Z,21.30
2018-12-26T06:24:46.107Z,21.60
2018-12-26T06:25:46.095Z,21.90
2018-12-26T06:26:46.083Z,21.50
2018-12-26T06:27:51.459Z,22.10
2018-12-26T06:28:47.082Z,21.30
2018-12-26T06:29:46.050Z,22.00
2018-12-26T06:30:46.040Z,22.00
2018-12-26T06:31:46.032Z,21.40
2018-12-26T06:32:46.021Z,21.40
2018-12-26T06:33:46.016Z,21.60
2018-12-26T06:34:45.996Z,22.40
2018-12-26T06:35:45.985Z,22.00
2018-12-26T06:36:45.977Z,20.80
2018-12-26T06:37:45.974Z,21.30
2018-12-26T06:38:45.962Z,21.60
2018-12-26T06:39:45.943Z,20.90
2018-12-26T06:40:45.933Z,20.70
2018-12-26T06:41:45.925Z,21.40
2018-12-26T06:42:45.910Z,21.10
2018-12-26T06:43:45.910Z,21.50
2018-12-26T06:44:45.889Z,20.70
2018-12-26T06:45:45.878Z,20.40
2018-12-26T06:46:45.867Z,21.00
2018-12-26T06:47:45.860Z,21.00
2018-12-26T06:48:45.854Z,20.70
2018-12-26T06:49:45.838Z,21.20
2018-12-26T06:50:45.824Z,21.00
2018-12-26T06:51:45.813Z,21.20
2018-12-26T06:52:45.803Z,21.10
2018-12-26T06:53:45.805Z,21.60
2018-12-26T06:54:45.781Z,20.30
2018-12-26T06:55:45.770Z,21.20
2018-12-26T06:56:45.758Z,21.20
2018-12-26T06:57:45.747Z,20.30
2018-12-26T06:58:45.746Z,22.00
2018-12-26T06:59:45.726Z,21.50
2018-12-26T07:00:45.720Z,21.10
2018-12-26T07:01:45.704Z,21.30
2018-12-26T07:02:45.693Z,21.40
2018-12-26T07:03:45.692Z,21.60
2018-12-26T07:04:45.672Z,20.70
2018-12-26T07:05:45.663Z,20.30
2018-12-26T07:06:45.655Z,21.50
2018-12-26T07:07:45.640Z,20.90
2018-12-26T07:08:45.657Z,21.90
2018-12-26T07:09:45.620Z,21.80
2018-12-26T07:10:45.609Z,21.90
2018-12-26T07:11:45.597Z,21.70
2018-12-26T07:12:45.589Z,21.90
2018-12-26T07:13:45.577Z,22.20
2018-12-26T07:14:45.575Z,22.00
2018-12-26T07:15:45.555Z,21.70
2018-12-26T07:16:45.545Z,22.30
2018-12-26T07:17:45.535Z,22.00
2018-12-26T07:18:45.537Z,22.70
2018-12-26T07:19:45.519Z,21.40
2018-12-26T07:20:45.502Z,22.70
2018-12-26T07:21:45.490Z,22.30
2018-12-26T07:22:45.482Z,22.80
2018-12-26T07:23:45.469Z,23.30
2018-12-26T07:24:45.473Z,22.80
2018-12-26T07:25:45.447Z,22.90
2018-12-26T07:26:45.436Z,21.80
2018-12-26T07:27:45.426Z,21.90
2018-12-26T07:28:45.419Z,22.20
2018-12-26T07:29:45.412Z,22.30
2018-12-26T07:30:45.393Z,22.20
2018-12-26T07:31:45.384Z,22.80
2018-12-26T07:32:45.372Z,21.90
2018-12-26T07:33:45.362Z,22.90
2018-12-26T07:34:45.358Z,23.60
2018-12-26T07:35:45.345Z,22.90
2018-12-26T07:36:45.329Z,22.50
2018-12-26T07:37:45.317Z,22.00
2018-12-26T07:38:45.308Z,22.30
2018-12-26T07:39:45.308Z,22.30
2018-12-26T07:40:45.288Z,22.30
2018-12-26T07:41:45.276Z,22.30
2018-12-26T07:42:45.264Z,22.40
2018-12-26T07:43:45.256Z,22.80
2018-12-26T07:44:45.250Z,23.20
2018-12-26T07:45:45.231Z,23.70
2018-12-26T07:46:45.221Z,22.80
2018-12-26T07:47:45.213Z,22.50
2018-12-26T07:48:45.199Z,22.60
2018-12-26T07:49:45.196Z,22.00
2018-12-26T07:50:45.177Z,23.10
2018-12-26T07:51:45.173Z,22.50
2018-12-26T07:52:45.155Z,22.10
2018-12-26T07:53:45.184Z,23.40
2018-12-26T07:54:45.169Z,22.70
2018-12-26T07:55:45.123Z,22.50
2018-12-26T07:56:45.112Z,22.90
2018-12-26T07:57:45.102Z,22.90
2018-12-26T07:58:45.091Z,22.20
2018-12-26T07:59:45.081Z,22.80
2018-12-26T08:00:45.077Z,23.30
2018-12-26T08:01:45.059Z,23.60
2018-12-26T08:02:45.047Z,22.80
2018-12-26T08:03:45.040Z,22.70
2018-12-26T08:04:45.028Z,23.20
2018-12-26T08:05:45.024Z,22.60
2018-12-26T08:06:45.007Z,23.30
2018-12-26T08:07:44.994Z,22.20
2018-12-26T08:08:44.983Z,23.10
2018-12-26T08:09:44.975Z,23.30
2018-12-26T08:10:44.971Z,22.80
2018-12-26T08:11:44.951Z,22.40
2018-12-26T08:12:44.942Z,23.40
2018-12-26T08:13:44.935Z,22.50
2018-12-26T08:14:44.925Z,22.70
2018-12-26T08:15:44.917Z,22.00
2018-12-26T08:16:44.903Z,22.30
2018-12-26T08:17:44.887Z,22.50
2018-12-26T08:18:44.880Z,22.60
2018-12-26T08:19:44.867Z,22.90
2018-12-26T08:20:44.867Z,22.00
2018-12-26T08:21:44.862Z,22.30
2018-12-26T08:22:44.834Z,22.30
2018-12-26T08:23:44.823Z,22.00
2018-12-26T08:24:44.811Z,23.20
2018-12-26T08:25:44.836Z,22.60
2018-12-26T08:26:44.795Z,21.90
2018-12-26T08:27:44.848Z,22.40
2018-12-26T08:28:44.768Z,22.10
2018-12-26T08:29:44.758Z,22.70
2018-12-26T08:30:44.748Z,22.50
2018-12-26T08:31:44.748Z,22.40
2018-12-26T08:32:44.726Z,23.00
2018-12-26T08:33:44.716Z,23.60
2018-12-26T08:34:44.704Z,23.00
2018-12-26T08:35:44.694Z,23.20
2018-12-26T08:36:44.691Z,22.70
2018-12-26T08:37:44.674Z,21.60
2018-12-26T08:38:44.661Z,22.70
2018-12-26T08:39:44.655Z,22.50
2018-12-26T08:40:44.641Z,22.30
2018-12-26T08:41:44.637Z,22.10
2018-12-26T08:42:44.618Z,22.40
2018-12-26T08:43:44.608Z,22.10
2018-12-26T08:44:44.600Z,22.50
2018-12-26T08:45:44.605Z,22.00
2018-12-26T08:46:44.585Z,22.30
2018-12-26T08:47:44.565Z,22.80
2018-12-26T08:48:44.554Z,22.70
2018-12-26T08:49:44.546Z,23.00
2018-12-26T08:50:44.535Z,23.30
2018-12-26T08:51:44.533Z,23.50
2018-12-26T08:52:44.512Z,22.60
2018-12-26T08:53:44.503Z,22.60
2018-12-26T08:54:44.491Z,22.70
2018-12-26T08:55:44.481Z,23.40
2018-12-26T08:56:44.477Z,23.70
2018-12-26T08:57:44.457Z,23.90
2018-12-26T08:58:44.447Z,22.60
2018-12-26T08:59:44.436Z,23.00
2018-12-26T09:00:44.426Z,22.80
2018-12-26T09:01:44.450Z,23.00
2018-12-26T09:02:44.407Z,21.70
2018-12-26T09:03:44.393Z,21.80
2018-12-26T09:04:44.390Z,21.90
2018-12-26T09:05:44.371Z,21.70
2018-12-26T09:06:44.360Z,21.70
2018-12-26T09:07:44.358Z,21.50
2018-12-26T09:08:44.342Z,23.30
2018-12-26T09:09:44.328Z,22.80
2018-12-26T09:10:44.318Z,22.00
2018-12-26T09:11:44.307Z,22.60
2018-12-26T09:12:44.361Z,21.60
2018-12-26T09:13:44.289Z,22.20
2018-12-26T09:14:44.284Z,22.20
2018-12-26T09:15:44.264Z,22.30
2018-12-26T09:16:44.253Z,22.50
2018-12-26T09:17:44.251Z,21.20
2018-12-26T09:18:44.233Z,22.00
2018-12-26T09:19:44.230Z,21.80
2018-12-26T09:20:44.219Z,21.80
2018-12-26T09:21:44.200Z,20.20
2018-12-26T09:22:44.196Z,21.20
2018-12-26T09:23:44.178Z,20.50
2018-12-26T09:24:44.171Z,20.20
2018-12-26T09:25:44.163Z,20.80
2018-12-26T09:26:44.145Z,20.80
2018-12-26T09:27:44.210Z,21.70
2018-12-26T09:28:44.195Z,21.50
2018-12-26T09:29:44.115Z,22.10
2018-12-26T09:30:44.112Z,22.10
2018-12-26T09:31:44.093Z,23.20
2018-12-26T09:32:44.093Z,22.70
2018-12-26T09:33:44.072Z,23.60
2018-12-26T09:34:44.060Z,23.80
2018-12-26T09:35:44.050Z,23.30
2018-12-26T09:36:44.040Z,23.40
2018-12-26T09:37:44.039Z,23.30
2018-12-26T09:38:44.017Z,21.50
2018-12-26T09:39:44.008Z,23.40
2018-12-26T09:40:44.023Z,22.70
2018-12-26T09:41:43.985Z,23.60
2018-12-26T09:42:43.987Z,23.20
2018-12-26T09:43:43.966Z,22.50
2018-12-26T09:44:43.954Z,20.70
2018-12-26T09:45:44.652Z,20.50
2018-12-26T09:46:43.933Z,20.80
2018-12-26T09:47:43.939Z,20.30
2018-12-26T09:48:43.910Z,20.30
2018-12-26T09:49:43.903Z,19.90
2018-12-26T09:50:43.890Z,18.70
2018-12-26T09:51:43.880Z,18.80
2018-12-26T09:52:43.879Z,17.70
2018-12-26T09:53:43.857Z,17.80
2018-12-26T09:54:43.855Z,18.00
2018-12-26T09:55:43.856Z,17.40
2018-12-26T09:56:43.825Z,17.20
2018-12-26T09:57:43.824Z,16.80
2018-12-26T09:58:52.287Z,17.10
2018-12-26T09:59:44.794Z,17.50
2018-12-26T10:00:43.784Z,17.20
2018-12-26T10:01:43.772Z,16.60
2018-12-26T10:02:43.799Z,16.80
2018-12-26T10:03:43.751Z,16.90
2018-12-26T10:04:43.740Z,17.20
2018-12-26T10:05:43.740Z,16.30
2018-12-26T10:06:43.718Z,16.80
2018-12-26T10:07:43.724Z,16.40
2018-12-26T10:08:43.698Z,16.80
2018-12-26T10:09:43.699Z,16.00
2018-12-26T10:10:43.704Z,15.90
2018-12-26T10:11:43.695Z,15.10
2018-12-26T10:12:43.685Z,16.20
2018-12-26T10:13:43.648Z,15.50
2018-12-26T10:14:43.633Z,15.40
2018-12-26T10:15:43.623Z,15.50
2018-12-26T10:16:43.611Z,14.60
2018-12-26T10:17:43.696Z,15.80
2018-12-26T10:18:43.593Z,15.30
2018-12-26T10:19:43.579Z,15.20
2018-12-26T10:20:43.569Z,16.70
2018-12-26T10:21:43.558Z,15.10
2018-12-26T10:22:43.548Z,15.10
2018-12-26T10:23:43.549Z,15.30
2018-12-26T10:24:43.528Z,15.70
2018-12-26T10:25:43.515Z,16.00
2018-12-26T10:26:43.505Z,14.30
2018-12-26T10:27:43.493Z,12.90
2018-12-26T10:28:43.492Z,14.40
2018-12-26T10:29:43.478Z,14.50
2018-12-26T10:30:43.467Z,14.00
2018-12-26T10:31:43.449Z,14.30
2018-12-26T10:32:43.440Z,14.20
2018-12-26T10:33:43.494Z,14.00
2018-12-26T10:34:43.419Z,13.30
2018-12-26T10:35:43.414Z,13.00
2018-12-26T10:36:43.396Z,13.10
2018-12-26T10:37:43.387Z,13.50
2018-12-26T10:38:43.382Z,14.10
2018-12-26T10:39:43.363Z,13.90
2018-12-26T10:40:43.461Z,14.00
2018-12-26T10:41:43.343Z,12.70
2018-12-26T10:42:43.331Z,13.10
2018-12-26T10:43:43.333Z,12.90
2018-12-26T10:44:43.310Z,13.00
2018-12-26T10:45:43.299Z,12.90
2018-12-26T10:46:43.290Z,13.00
2018-12-26T10:47:43.277Z,12.40
2018-12-26T10:48:43.297Z,12.80
2018-12-26T10:49:43.256Z,12.90
2018-12-26T10:50:43.246Z,12.20
2018-12-26T10:51:43.246Z,12.00
2018-12-26T10:52:43.224Z,12.40
2018-12-26T10:53:43.216Z,11.70
2018-12-26T10:54:43.212Z,12.10
2018-12-26T10:55:43.217Z,12.10
2018-12-26T10:56:43.181Z,12.40
2018-12-26T10:57:43.170Z,12.00
2018-12-26T10:58:43.161Z,12.40
2018-12-26T10:59:43.157Z,12.20
2018-12-26T11:00:43.245Z,11.70
2018-12-26T11:01:43.127Z,12.30
2018-12-26T11:02:43.116Z,12.30
2018-12-26T11:03:43.108Z,12.30
2018-12-26T11:04:43.102Z,12.50
2018-12-26T11:05:43.099Z,12.40
2018-12-26T11:06:43.074Z,12.10
2018-12-26T11:07:43.065Z,12.30
2018-12-26T11:08:43.051Z,11.50
2018-12-26T11:09:43.049Z,12.00
2018-12-26T11:10:43.029Z,13.20
2018-12-26T11:11:43.020Z,12.10
2018-12-26T11:12:43.009Z,12.40
2018-12-26T11:13:42.998Z,12.30
2018-12-26T11:14:42.999Z,13.00
2018-12-26T11:15:42.975Z,12.70
2018-12-26T11:16:42.967Z,11.80
2018-12-26T11:17:42.954Z,12.50
2018-12-26T11:18:42.943Z,12.20
2018-12-26T11:19:42.942Z,12.30
2018-12-26T11:20:42.921Z,12.20
2018-12-26T11:21:42.911Z,13.40
2018-12-26T11:22:42.913Z,12.30
2018-12-26T11:23:42.889Z,13.00
2018-12-26T11:24:42.887Z,12.60
2018-12-26T11:25:42.867Z,12.00
2018-12-26T11:26:42.856Z,12.40
2018-12-26T11:27:42.847Z,12.40
2018-12-26T11:28:42.845Z,12.50
2018-12-26T11:29:42.855Z,12.40
2018-12-26T11:30:42.814Z,12.30
2018-12-26T11:31:42.802Z,14.20
2018-12-26T11:32:42.798Z,15.80
2018-12-26T11:33:42.787Z,17.20
2018-12-26T11:34:42.786Z,17.90
2018-12-26T11:35:42.768Z,17.90
2018-12-26T11:36:42.749Z,14.40
2018-12-26T11:37:42.739Z,14.20
2018-12-26T11:38:42.738Z,14.10
2018-12-26T11:39:42.717Z,12.90
2018-12-26T11:40:42.718Z,13.00
2018-12-26T11:41:42.695Z,12.70
2018-12-26T11:42:42.689Z,13.40
2018-12-26T11:43:42.675Z,13.20
2018-12-26T11:44:42.663Z,11.90
2018-12-26T11:45:42.663Z,12.50
2018-12-26T11:46:42.642Z,13.50
2018-12-26T11:47:42.636Z,13.10
2018-12-26T11:48:42.621Z,15.60
2018-12-26T11:49:42.611Z,13.90
2018-12-26T11:50:42.610Z,14.00
2018-12-26T11:51:42.590Z,15.60
2018-12-26T11:52:42.578Z,18.20
2018-12-26T11:53:42.567Z,15.40
2018-12-26T11:54:42.560Z,13.00
2018-12-26T11:55:42.560Z,14.50
2018-12-26T11:56:42.537Z,14.90
2018-12-26T11:57:42.531Z,14.00
2018-12-26T11:58:42.514Z,13.70
2018-12-26T11:59:42.503Z,14.00
2018-12-26T12:00:42.502Z,13.90
2018-12-26T12:01:42.482Z,15.00
2018-12-26T12:02:42.473Z,14.60
2018-12-26T12:03:42.469Z,14.30
2018-12-26T12:04:42.452Z,13.50
2018-12-26T12:05:42.448Z,13.50
2018-12-26T12:06:42.428Z,13.60
2018-12-26T12:07:42.420Z,13.10
2018-12-26T12:08:42.411Z,13.40
2018-12-26T12:09:42.404Z,13.60
2018-12-26T12:10:42.397Z,15.10
2018-12-26T12:11:42.375Z,14.20
2018-12-26T12:12:42.366Z,14.70
2018-12-26T12:13:42.359Z,13.00
2018-12-26T12:14:42.346Z,13.70
2018-12-26T12:15:42.343Z,13.80
2018-12-26T12:16:42.323Z,13.10
2018-12-26T12:17:42.311Z,12.90
2018-12-26T12:18:42.301Z,13.30
2018-12-26T12:19:42.292Z,14.40
2018-12-26T12:20:42.337Z,13.30
2018-12-26T12:21:42.269Z,14.00
2018-12-26T12:22:42.259Z,13.40
2018-12-26T12:23:42.247Z,14.20
2018-12-26T12:24:42.237Z,15.10
2018-12-26T12:25:42.226Z,13.60
2018-12-26T12:26:42.228Z,13.40
2018-12-26T12:27:42.205Z,13.90
2018-12-26T12:28:42.195Z,14.10
2018-12-26T12:29:42.185Z,14.10
2018-12-26T12:30:42.178Z,13.80
2018-12-26T12:31:42.169Z,14.30
2018-12-26T12:32:42.176Z,14.40
2018-12-26T12:33:42.143Z,13.70
2018-12-26T12:34:42.150Z,14.80
2018-12-26T12:35:42.120Z,15.00
2018-12-26T12:36:42.186Z,14.50
2018-12-26T12:37:42.098Z,14.70
2018-12-26T12:38:42.101Z,13.40
2018-12-26T12:39:42.076Z,14.30
2018-12-26T12:40:42.065Z,13.70
2018-12-26T12:41:42.068Z,14.40
2018-12-26T12:42:42.045Z,13.90
2018-12-26T12:43:42.040Z,13.40
2018-12-26T12:44:42.025Z,13.50
2018-12-26T12:45:42.014Z,13.90
2018-12-26T12:46:42.010Z,13.90
2018-12-26T12:47:41.993Z,13.50
2018-12-26T12:48:41.985Z,13.20
2018-12-26T12:49:41.972Z,12.50
2018-12-26T12:50:41.965Z,13.00
2018-12-26T12:51:41.957Z,13.00
2018-12-26T12:52:41.937Z,14.40
2018-12-26T12:53:41.928Z,15.20
2018-12-26T12:54:41.918Z,14.20
2018-12-26T12:55:42.068Z,13.40
2018-12-26T12:56:41.959Z,13.40
2018-12-26T12:57:41.885Z,13.70
2018-12-26T12:58:41.874Z,13.40
2018-12-26T12:59:44.989Z,13.20
2018-12-26T13:00:41.858Z,13.90